Time;durP1;ratioP1;P1;durP2;ratioP2;P2;SDS_P1;SDS_P2;PMS_P1;PMS_P2;Temp;Humidity;BMP_temperature;BMP_pressure;BME280_temperature;BME280_humidity;BME280_pressure;Samples;Min_cycle;Max_cycle;Signal;HPM_P1;HPM_P2
2021/01/09 00:00:55;;;;;;;3.45;2.92;;;16.30;44.20;;;;;;6111569;23;20133;-80
2021/01/09 00:03:23;;;;;;;3.78;2.67;;;16.30;44.20;;;;;;6111811;23;20146;-80
2021/01/09 00:05:53;;;;;;;3.80;2.95;;;16.30;44.20;;;;;;6111381;23;20224;-80
2021/01/09 00:08:20;;;;;;;3.67;2.83;;;16.40;44.20;;;;;;6111058;23;20137;-80
2021/01/09 00:10:48;;;;;;;3.80;3.03;;;16.40;44.20;;;;;;6110139;23;20200;-81
2021/01/09 00:13:15;;;;;;;3.45;2.80;;;16.40;44.30;;;;;;6086151;23;20198;-81
2021/01/09 00:15:41;;;;;;;4.20;2.90;;;16.40;44.30;;;;;;6109519;23;20160;-81
2021/01/09 00:18:07;;;;;;;3.85;3.03;;;16.30;44.30;;;;;;6112157;23;20132;-81
2021/01/09 00:20:32;;;;;;;3.63;3.05;;;16.30;44.30;;;;;;6088236;23;20159;-81
2021/01/09 00:23:00;;;;;;;4.00;2.72;;;16.40;44.20;;;;;;6113741;23;20148;-81
2021/01/09 00:25:26;;;;;;;3.63;2.95;;;16.30;44.30;;;;;;6113737;23;20144;-80
2021/01/09 00:27:51;;;;;;;3.35;2.63;;;16.40;44.30;;;;;;6113692;23;20140;-80
2021/01/09 00:30:20;;;;;;;3.60;2.85;;;16.40;44.30;;;;;;6113714;23;20216;-80
2021/01/09 00:32:47;;;;;;;4.50;2.97;;;16.30;44.30;;;;;;6114092;23;20164;-81
2021/01/09 00:35:12;;;;;;;3.70;3.00;;;16.30;44.40;;;;;;6124519;23;20195;-81
2021/01/09 00:37:39;;;;;;;4.70;3.45;;;16.30;44.40;;;;;;6141873;23;20144;-81
2021/01/09 00:40:06;;;;;;;3.65;3.00;;;16.30;44.40;;;;;;6142556;23;20140;-81
2021/01/09 00:42:42;;;;;;;3.42;2.80;;;16.30;44.40;;;;;;6143691;23;20136;-81
2021/01/09 00:45:26;;;;;;;3.85;3.00;;;16.30;44.60;;;;;;6142283;23;20135;-80
2021/01/09 00:47:52;;;;;;;2.97;2.60;;;16.30;44.50;;;;;;6141992;23;20139;-81
2021/01/09 00:50:27;;;;;;;4.30;3.00;;;16.30;44.40;;;;;;6141648;23;20164;-80
2021/01/09 00:52:53;;;;;;;4.15;2.90;;;16.30;44.30;;;;;;6142516;23;20147;-81
2021/01/09 00:55:20;;;;;;;4.20;3.28;;;16.30;44.30;;;;;;6141832;23;20152;-81
2021/01/09 00:57:54;;;;;;;3.75;2.70;;;16.30;44.40;;;;;;6142476;23;20136;-81
2021/01/09 01:00:22;;;;;;;3.88;2.97;;;16.30;44.40;;;;;;6142411;23;20222;-81
2021/01/09 01:02:48;;;;;;;4.00;3.00;;;16.30;44.50;;;;;;6116691;23;20145;-81
2021/01/09 01:05:15;;;;;;;3.97;3.20;;;16.40;44.50;;;;;;6141668;23;20198;-81
2021/01/09 01:07:40;;;;;;;3.22;2.80;;;16.30;44.50;;;;;;6116446;23;20136;-81
2021/01/09 01:10:07;;;;;;;5.53;3.00;;;16.30;44.50;;;;;;6142392;23;20218;-81
2021/01/09 01:12:32;;;;;;;3.85;2.83;;;16.30;44.40;;;;;;6142135;23;20500;-81
2021/01/09 01:14:58;;;;;;;4.78;3.30;;;16.30;44.50;;;;;;6142539;23;20168;-81
2021/01/09 01:17:32;;;;;;;4.05;2.97;;;16.30;44.50;;;;;;6116338;23;20151;-81
2021/01/09 01:19:58;;;;;;;4.20;2.70;;;16.30;44.50;;;;;;6142540;23;20151;-81
2021/01/09 01:22:24;;;;;;;4.10;2.95;;;16.20;44.60;;;;;;6141717;23;20163;-81
2021/01/09 01:24:50;;;;;;;3.92;3.10;;;16.20;44.70;;;;;;6116577;23;20453;-81
2021/01/09 01:27:16;;;;;;;4.13;2.97;;;16.20;44.70;;;;;;6116062;23;20152;-81
2021/01/09 01:29:43;;;;;;;4.88;3.45;;;16.30;44.60;;;;;;6142161;23;20136;-81
2021/01/09 01:32:17;;;;;;;3.55;2.80;;;16.30;44.60;;;;;;6116608;23;20527;-81
2021/01/09 01:34:43;;;;;;;4.28;3.17;;;16.30;44.60;;;;;;6141986;23;20183;-81
2021/01/09 01:37:10;;;;;;;3.92;3.10;;;16.30;44.60;;;;;;6141964;23;20143;-81
2021/01/09 01:39:41;;;;;;;3.30;3.00;;;16.30;44.60;;;;;;6142432;23;20187;-81
2021/01/09 01:42:08;;;;;;;3.35;2.90;;;16.30;44.60;;;;;;6142104;23;20511;-81
2021/01/09 01:44:34;;;;;;;3.72;3.03;;;16.30;44.70;;;;;;6142439;23;20132;-82
2021/01/09 01:47:00;;;;;;;4.05;3.08;;;16.30;44.70;;;;;;6116253;23;20133;-81
2021/01/09 01:49:26;;;;;;;3.60;2.75;;;16.30;44.70;;;;;;6092367;23;20151;-81
2021/01/09 01:51:52;;;;;;;3.95;3.00;;;16.30;44.80;;;;;;6092529;23;20168;-81
2021/01/09 01:54:19;;;;;;;4.05;2.90;;;16.20;44.80;;;;;;6141958;23;20132;-81
2021/01/09 01:56:48;;;;;;;3.58;2.75;;;16.20;44.70;;;;;;6091656;23;20215;-82
2021/01/09 01:59:17;;;;;;;3.65;2.90;;;16.20;44.80;;;;;;6115686;23;20152;-81
2021/01/09 02:01:44;;;;;;;4.25;3.00;;;16.20;44.70;;;;;;6141885;23;20596;-81
2021/01/09 02:04:12;;;;;;;4.32;3.08;;;16.20;44.80;;;;;;6092014;23;20573;-81
2021/01/09 02:06:38;;;;;;;4.15;2.97;;;16.20;44.70;;;;;;6141807;23;20196;-81
2021/01/09 02:09:12;;;;;;;4.07;2.97;;;16.20;44.70;;;;;;6091610;23;20163;-81
2021/01/09 02:12:00;;;;;;;3.67;2.92;;;16.20;44.80;;;;;;6092247;23;20171;-82
2021/01/09 02:14:53;;;;;;;4.13;2.88;;;16.20;44.80;;;;;;6141595;23;20216;-81
2021/01/09 02:17:20;;;;;;;4.10;2.85;;;16.20;44.90;;;;;;6115781;23;20631;-81
2021/01/09 02:19:47;;;;;;;3.85;2.90;;;16.20;45.00;;;;;;6116023;23;20139;-81
2021/01/09 02:22:16;;;;;;;3.50;2.97;;;16.20;44.90;;;;;;6115599;23;20472;-82
2021/01/09 02:24:46;;;;;;;3.63;2.78;;;16.20;44.90;;;;;;6092356;23;20557;-81
2021/01/09 02:27:12;;;;;;;4.70;3.25;;;16.20;44.90;;;;;;6115236;23;20148;-81
2021/01/09 02:29:56;;;;;;;3.67;3.00;;;16.20;44.90;;;;;;6140884;23;20136;-81
2021/01/09 02:32:27;;;;;;;3.72;2.63;;;16.20;44.90;;;;;;6141605;23;20175;-80
2021/01/09 02:34:57;;;;;;;3.72;2.50;;;16.30;44.80;;;;;;6141243;23;20215;-81
2021/01/09 02:37:25;;;;;;;3.95;2.88;;;16.20;44.80;;;;;;6091223;23;20136;-81
2021/01/09 02:40:00;;;;;;;3.85;2.90;;;16.20;44.80;;;;;;6091019;23;20160;-81
2021/01/09 02:42:26;;;;;;;3.67;2.85;;;16.20;44.80;;;;;;6114589;23;20182;-81
2021/01/09 02:44:54;;;;;;;3.55;2.80;;;16.30;44.90;;;;;;6141127;23;20516;-81
2021/01/09 02:47:22;;;;;;;3.55;2.75;;;16.30;44.90;;;;;;6115293;23;20144;-81
2021/01/09 02:49:47;;;;;;;3.53;3.05;;;16.20;44.90;;;;;;6091462;23;20562;-81
2021/01/09 02:52:14;;;;;;;3.75;3.00;;;16.20;44.90;;;;;;6142109;23;20197;-82
2021/01/09 02:54:40;;;;;;;3.75;2.85;;;16.20;44.90;;;;;;6115747;23;20140;-81
2021/01/09 02:57:05;;;;;;;3.85;2.70;;;16.20;45.00;;;;;;6090884;23;20132;-81
2021/01/09 02:59:31;;;;;;;3.60;3.03;;;16.20;45.00;;;;;;6141169;23;20143;-81
2021/01/09 03:01:57;;;;;;;2.78;2.53;;;16.20;45.00;;;;;;6140872;23;20568;-81
2021/01/09 03:04:22;;;;;;;3.47;2.55;;;16.20;45.00;;;;;;6141630;23;20159;-80
2021/01/09 03:06:49;;;;;;;4.22;3.20;;;16.20;44.90;;;;;;6115727;23;20631;-81
2021/01/09 03:09:15;;;;;;;4.10;3.15;;;16.20;44.90;;;;;;6140812;23;20533;-81
2021/01/09 03:11:40;;;;;;;3.97;2.75;;;16.20;44.90;;;;;;6140672;23;20168;-81
2021/01/09 03:14:06;;;;;;;3.67;2.80;;;16.20;45.00;;;;;;6140260;23;20140;-81
2021/01/09 03:16:31;;;;;;;3.92;2.90;;;16.20;45.00;;;;;;6140587;23;20140;-81
2021/01/09 03:18:58;;;;;;;4.80;3.30;;;16.20;45.10;;;;;;6141241;23;20453;-82
2021/01/09 03:21:24;;;;;;;3.63;2.92;;;16.20;45.10;;;;;;6140647;23;20163;-81
2021/01/09 03:23:51;;;;;;;3.85;3.03;;;16.10;45.10;;;;;;6114969;23;20572;-81
2021/01/09 03:26:17;;;;;;;3.85;2.67;;;16.10;45.00;;;;;;6141248;23;20140;-81
2021/01/09 03:28:43;;;;;;;3.97;2.95;;;16.10;45.10;;;;;;6140740;23;20216;-81
2021/01/09 03:31:09;;;;;;;3.53;2.78;;;16.10;45.00;;;;;;6140593;23;20164;-81
2021/01/09 03:33:36;;;;;;;3.80;2.90;;;16.20;45.00;;;;;;6140678;23;20132;-81
2021/01/09 03:36:02;;;;;;;3.90;2.90;;;16.20;45.00;;;;;;6140827;23;20192;-81
2021/01/09 03:38:30;;;;;;;4.07;3.08;;;16.20;45.00;;;;;;6140409;23;20155;-82
2021/01/09 03:40:56;;;;;;;3.97;3.00;;;16.20;45.00;;;;;;6139997;23;20133;-81
2021/01/09 03:43:23;;;;;;;3.10;2.80;;;16.20;45.10;;;;;;6140441;23;20627;-81
2021/01/09 03:45:50;;;;;;;3.63;2.85;;;16.10;45.10;;;;;;6141062;23;20472;-81
2021/01/09 03:48:15;;;;;;;3.72;2.80;;;16.10;45.00;;;;;;6140050;23;20136;-80
2021/01/09 03:50:41;;;;;;;3.28;2.60;;;16.20;45.10;;;;;;6140616;23;20175;-81
2021/01/09 03:53:07;;;;;;;3.92;2.90;;;16.20;45.00;;;;;;6114731;23;20132;-81
2021/01/09 03:55:34;;;;;;;4.13;3.00;;;16.20;45.10;;;;;;6114512;23;20215;-81
2021/01/09 03:57:59;;;;;;;3.45;2.70;;;16.20;45.00;;;;;;6140846;23;20167;-82
2021/01/09 04:00:25;;;;;;;3.75;3.00;;;16.20;45.20;;;;;;6140798;23;20156;-81
2021/01/09 04:02:51;;;;;;;3.65;2.90;;;16.20;45.00;;;;;;6140817;23;20136;-80
2021/01/09 04:05:16;;;;;;;4.15;2.95;;;16.20;45.00;;;;;;6141253;23;20159;-81
2021/01/09 04:07:44;;;;;;;2.95;2.58;;;16.20;45.10;;;;;;6140633;23;20556;-81
2021/01/09 04:10:10;;;;;;;3.67;2.90;;;16.20;45.10;;;;;;6140662;23;20168;-81
2021/01/09 04:12:36;;;;;;;3.35;2.58;;;16.20;45.00;;;;;;6140785;23;20148;-81
2021/01/09 04:15:02;;;;;;;3.38;2.85;;;16.20;45.10;;;;;;6114507;23;20155;-81
2021/01/09 04:17:29;;;;;;;3.42;2.78;;;16.20;45.10;;;;;;6140896;23;20168;-82
2021/01/09 04:19:54;;;;;;;3.40;2.88;;;16.20;45.30;;;;;;6140890;23;20484;-81
2021/01/09 04:22:20;;;;;;;4.22;2.92;;;16.10;45.20;;;;;;6140168;23;20565;-81
2021/01/09 04:24:46;;;;;;;3.15;2.67;;;16.10;45.30;;;;;;6141060;23;20136;-81
2021/01/09 04:27:12;;;;;;;3.38;2.65;;;16.20;45.20;;;;;;6116115;23;20509;-81
2021/01/09 04:29:37;;;;;;;3.67;2.70;;;16.10;45.20;;;;;;6140515;23;20199;-81
2021/01/09 04:32:03;;;;;;;3.90;3.05;;;16.10;45.20;;;;;;6114615;23;20163;-81
2021/01/09 04:34:29;;;;;;;3.40;2.70;;;16.20;45.10;;;;;;6114507;23;20151;-81
2021/01/09 04:36:55;;;;;;;3.50;2.90;;;16.20;45.00;;;;;;6140973;23;20587;-81
2021/01/09 04:39:21;;;;;;;3.92;2.90;;;16.20;45.00;;;;;;6140575;23;20191;-81
2021/01/09 04:41:47;;;;;;;3.17;2.60;;;16.20;45.00;;;;;;6113884;23;20214;-81
2021/01/09 04:44:13;;;;;;;4.35;2.83;;;16.20;45.00;;;;;;6140667;23;20140;-81
2021/01/09 04:46:52;;;;;;;4.15;2.97;;;16.20;45.00;;;;;;6140447;23;20132;-80
2021/01/09 04:49:22;;;;;;;3.72;2.60;;;16.20;45.00;;;;;;6114266;23;20168;-81
2021/01/09 04:51:48;;;;;;;3.33;2.47;;;16.30;44.90;;;;;;6114888;23;20195;-81
2021/01/09 04:54:15;;;;;;;3.30;2.67;;;16.30;44.90;;;;;;6139870;23;20136;-81
2021/01/09 04:57:02;;;;;;;3.90;2.97;;;16.40;44.70;;;;;;6090413;23;20445;-81
2021/01/09 04:59:29;;;;;;;3.97;2.95;;;16.40;44.70;;;;;;6136277;23;20137;-82
2021/01/09 05:01:57;;;;;;;4.40;2.70;;;16.40;44.80;;;;;;6139996;23;20136;-81
2021/01/09 05:04:23;;;;;;;3.03;2.70;;;16.40;44.70;;;;;;6116102;23;20164;-81
2021/01/09 05:06:49;;;;;;;4.13;2.80;;;16.40;44.60;;;;;;6141709;23;20136;-81
2021/01/09 05:09:15;;;;;;;3.95;2.95;;;16.40;44.70;;;;;;6142565;23;20143;-81
2021/01/09 05:11:42;;;;;;;3.45;2.80;;;16.30;44.80;;;;;;6116068;23;20167;-81
2021/01/09 05:14:08;;;;;;;3.40;2.60;;;16.40;44.80;;;;;;6141617;23;20139;-81
2021/01/09 05:16:36;;;;;;;3.10;2.65;;;16.30;44.90;;;;;;6115121;23;20577;-81
2021/01/09 05:19:03;;;;;;;3.85;2.63;;;16.30;45.00;;;;;;6115871;23;20132;-81
2021/01/09 05:21:29;;;;;;;3.60;2.80;;;16.30;44.80;;;;;;6116686;23;20137;-81
2021/01/09 05:24:21;;;;;;;3.45;2.70;;;16.30;44.80;;;;;;6142212;23;20148;-81
2021/01/09 05:26:48;;;;;;;3.28;2.55;;;16.30;44.90;;;;;;6141721;23;20216;-81
2021/01/09 05:29:16;;;;;;;3.40;2.67;;;16.30;45.00;;;;;;6115692;23;20163;-81
2021/01/09 05:31:42;;;;;;;3.03;2.42;;;16.30;44.80;;;;;;6116504;23;20176;-81
2021/01/09 05:34:10;;;;;;;2.88;2.55;;;16.40;44.80;;;;;;6115985;23;20129;-81
2021/01/09 05:36:37;;;;;;;3.40;2.85;;;16.40;44.70;;;;;;6114978;23;20278;-81
2021/01/09 05:39:05;;;;;;;2.90;2.42;;;16.40;44.80;;;;;;6116143;23;20159;-81
2021/01/09 05:41:31;;;;;;;2.85;2.38;;;16.40;44.90;;;;;;6115933;23;20136;-81
2021/01/09 05:44:00;;;;;;;3.55;2.70;;;16.30;44.90;;;;;;6142441;23;20139;-81
2021/01/09 05:46:31;;;;;;;3.80;2.80;;;16.40;44.80;;;;;;6141947;23;20140;-80
2021/01/09 05:48:58;;;;;;;3.00;2.53;;;16.40;44.70;;;;;;6141962;23;20136;-81
2021/01/09 05:51:28;;;;;;;3.25;2.60;;;16.40;44.80;;;;;;6140904;23;20164;-81
2021/01/09 05:53:54;;;;;;;3.20;2.60;;;16.50;44.60;;;;;;6115480;23;20140;-81
2021/01/09 05:56:23;;;;;;;3.75;2.67;;;16.50;44.60;;;;;;6067239;23;20552;-81
2021/01/09 05:58:49;;;;;;;3.75;2.90;;;16.40;44.60;;;;;;6068407;23;20148;-81
2021/01/09 06:01:16;;;;;;;3.03;2.53;;;16.40;44.70;;;;;;6114429;23;20223;-81
2021/01/09 06:03:46;;;;;;;2.50;2.25;;;16.50;44.60;;;;;;6067195;23;20164;-81
2021/01/09 06:06:29;;;;;;;3.25;2.60;;;16.50;44.60;;;;;;6066963;23;20148;-81
2021/01/09 06:09:00;;;;;;;3.28;2.45;;;16.40;44.50;;;;;;6141884;23;20147;-81
2021/01/09 06:11:36;;;;;;;2.90;2.45;;;16.50;44.50;;;;;;6114087;23;20168;-77
2021/01/09 06:14:03;;;;;;;3.28;2.55;;;16.50;44.60;;;;;;6141660;23;20136;-81
2021/01/09 06:16:32;;;;;;;4.78;2.70;;;16.50;44.60;;;;;;6141280;23;20136;-81
2021/01/09 06:18:58;;;;;;;3.50;2.70;;;16.50;44.50;;;;;;6141689;23;20513;-83
2021/01/09 06:21:25;;;;;;;3.55;2.80;;;16.50;44.50;;;;;;6141801;23;20167;-81
2021/01/09 06:23:53;;;;;;;3.20;2.50;;;16.50;44.50;;;;;;6142306;23;20136;-80
2021/01/09 06:26:22;;;;;;;3.08;2.45;;;16.50;44.60;;;;;;6115932;23;20532;-80
2021/01/09 06:28:58;;;;;;;3.35;2.70;;;16.50;44.60;;;;;;6141232;23;20137;-81
2021/01/09 06:31:33;;;;;;;3.08;2.33;;;16.40;44.60;;;;;;6141765;23;20602;-81
2021/01/09 06:34:01;;;;;;;3.30;2.83;;;16.40;44.80;;;;;;6141973;23;20159;-82
2021/01/09 06:36:27;;;;;;;2.90;2.55;;;16.40;44.70;;;;;;6115569;23;20219;-80
2021/01/09 06:38:55;;;;;;;2.80;2.33;;;16.50;44.50;;;;;;6115976;23;20148;-81
2021/01/09 06:41:22;;;;;;;3.35;2.50;;;16.50;44.50;;;;;;6115932;23;20201;-81
2021/01/09 06:43:54;;;;;;;2.67;2.33;;;16.40;44.70;;;;;;6115694;23;20137;-80
2021/01/09 06:46:42;;;;;;;8.30;3.00;;;16.40;44.60;;;;;;6142348;23;20171;-81
2021/01/09 06:49:19;;;;;;;3.05;2.72;;;16.50;44.60;;;;;;6141544;23;20133;-81
2021/01/09 06:52:03;;;;;;;3.75;2.65;;;16.50;44.60;;;;;;6115676;23;20674;-80
2021/01/09 06:54:42;;;;;;;3.95;2.28;;;16.40;44.70;;;;;;6117587;23;20128;-81
2021/01/09 06:57:22;;;;;;;3.88;2.63;;;16.50;44.60;;;;;;6140677;23;20151;-81
2021/01/09 06:59:51;;;;;;;3.22;2.72;;;16.50;44.60;;;;;;6141523;23;20136;-81
2021/01/09 07:02:20;;;;;;;3.38;2.67;;;16.50;44.60;;;;;;6141875;23;20132;-83
2021/01/09 07:05:09;;;;;;;4.40;2.50;;;16.50;44.60;;;;;;6141320;23;20132;-82
2021/01/09 07:07:56;;;;;;;3.05;2.40;;;16.50;44.60;;;;;;6091679;23;20205;-81
2021/01/09 07:10:26;;;;;;;3.95;2.65;;;16.50;44.60;;;;;;6113737;23;20175;-81
2021/01/09 07:13:18;;;;;;;3.45;2.58;;;16.50;44.60;;;;;;6114254;23;20132;-81
2021/01/09 07:16:05;;;;;;;3.97;2.40;;;16.50;44.60;;;;;;6109143;23;20156;-81
2021/01/09 07:18:31;;;;;;;3.25;2.40;;;16.40;44.60;;;;;;6140966;23;20191;-82
2021/01/09 07:20:57;;;;;;;3.13;2.45;;;16.50;44.70;;;;;;6089572;23;20187;-82
2021/01/09 07:23:22;;;;;;;3.10;2.35;;;16.50;44.50;;;;;;6113899;23;20140;-81
2021/01/09 07:25:51;;;;;;;4.60;2.35;;;16.60;44.40;;;;;;6089694;23;20148;-81
2021/01/09 07:28:19;;;;;;;3.60;2.55;;;16.60;44.50;;;;;;6089645;23;20664;-81
2021/01/09 07:30:44;;;;;;;3.30;2.50;;;16.60;44.40;;;;;;6139318;23;20168;-82
2021/01/09 07:33:19;;;;;;;3.22;2.40;;;16.50;44.50;;;;;;6089689;23;20199;-81
2021/01/09 07:35:46;;;;;;;5.70;2.42;;;16.50;44.50;;;;;;6113241;23;20192;-80
2021/01/09 07:38:13;;;;;;;3.05;2.38;;;16.50;44.60;;;;;;6140362;23;20576;-81
2021/01/09 07:40:46;;;;;;;2.88;2.40;;;16.50;44.60;;;;;;6114140;23;20140;-81
2021/01/09 07:43:38;;;;;;;3.63;2.38;;;16.50;44.60;;;;;;6139940;23;20180;-80
2021/01/09 07:46:27;;;;;;;2.67;2.25;;;16.50;44.60;;;;;;6115196;23;20227;-81
2021/01/09 07:48:54;;;;;;;3.05;2.60;;;16.50;44.60;;;;;;6090526;23;20320;-80
2021/01/09 07:51:41;;;;;;;3.33;2.55;;;16.50;44.60;;;;;;6066181;23;20520;-80
2021/01/09 07:54:11;;;;;;;3.38;2.75;;;16.60;44.40;;;;;;6093422;23;20179;-80
2021/01/09 07:56:38;;;;;;;4.18;2.42;;;16.60;44.40;;;;;;6066076;23;20148;-80
2021/01/09 07:59:05;;;;;;;2.88;2.40;;;16.60;44.30;;;;;;6089820;23;20140;-81
2021/01/09 08:01:42;;;;;;;3.45;2.45;;;16.60;44.40;;;;;;6064223;23;20160;-80
2021/01/09 08:04:09;;;;;;;3.00;2.30;;;16.60;44.40;;;;;;6066056;23;20160;-80
2021/01/09 08:06:37;;;;;;;2.60;2.25;;;16.50;44.40;;;;;;6066698;23;20179;-81
2021/01/09 08:09:04;;;;;;;3.58;2.60;;;16.60;44.40;;;;;;6067162;23;20152;-80
2021/01/09 08:11:29;;;;;;;2.45;1.90;;;16.60;44.40;;;;;;6066578;23;20187;-82
2021/01/09 08:14:02;;;;;;;3.72;2.60;;;16.60;44.40;;;;;;6066486;23;20152;-81
2021/01/09 08:16:28;;;;;;;4.55;2.50;;;16.60;44.40;;;;;;6066348;23;20148;-81
2021/01/09 08:19:11;;;;;;;2.97;2.20;;;16.60;44.40;;;;;;6091156;23;20164;-80
2021/01/09 08:21:39;;;;;;;3.13;2.35;;;16.60;44.50;;;;;;6090904;23;20147;-81
2021/01/09 08:24:05;;;;;;;4.28;2.72;;;16.60;44.40;;;;;;6090366;23;20140;-82
2021/01/09 08:26:30;;;;;;;2.88;2.38;;;16.60;44.50;;;;;;6065596;23;20176;-82
2021/01/09 08:29:05;;;;;;;2.53;2.25;;;16.50;44.50;;;;;;6065722;23;20220;-81
2021/01/09 08:31:32;;;;;;;3.15;2.50;;;16.60;44.40;;;;;;6114225;23;20207;-81
2021/01/09 08:33:58;;;;;;;11.50;2.70;;;16.70;44.30;;;;;;6090642;23;20460;-81
2021/01/09 08:36:23;;;;;;;2.85;2.20;;;16.60;44.40;;;;;;6113768;23;20670;-82
2021/01/09 08:38:49;;;;;;;2.17;1.98;;;16.60;44.50;;;;;;6091529;23;20539;-82
2021/01/09 08:41:17;;;;;;;2.80;2.05;;;16.60;44.60;;;;;;6092944;23;20527;-81
2021/01/09 08:43:43;;;;;;;3.20;2.38;;;16.60;44.50;;;;;;6117015;23;20148;-81
2021/01/09 08:46:14;;;;;;;3.22;2.38;;;16.60;44.40;;;;;;6142005;23;20238;-82
2021/01/09 08:48:42;;;;;;;3.40;2.30;;;16.60;44.50;;;;;;6093360;23;20168;-80
2021/01/09 08:51:16;;;;;;;3.13;2.50;;;16.60;44.50;;;;;;6142578;23;20164;-81
2021/01/09 08:53:59;;;;;;;3.28;2.40;;;16.60;44.40;;;;;;6141422;23;20140;-81
2021/01/09 08:56:27;;;;;;;2.42;2.00;;;16.60;44.40;;;;;;6115964;23;20136;-81
2021/01/09 08:58:53;;;;;;;2.75;2.20;;;16.70;44.40;;;;;;6142083;23;20132;-80
2021/01/09 09:01:46;;;;;;;3.17;2.53;;;16.70;44.40;;;;;;6091438;23;20488;-82
2021/01/09 09:04:12;;;;;;;3.35;2.30;;;16.60;44.40;;;;;;6139042;23;20136;-81
2021/01/09 09:06:48;;;;;;;2.65;2.20;;;16.70;44.30;;;;;;6114620;23;20144;-82
2021/01/09 09:09:17;;;;;;;2.83;2.30;;;16.70;44.40;;;;;;6116546;23;20147;-80
2021/01/09 09:11:50;;;;;;;2.60;2.38;;;16.70;44.30;;;;;;6093352;23;20207;-80
2021/01/09 09:14:16;;;;;;;2.80;2.05;;;16.70;44.50;;;;;;6094975;23;20132;-80
2021/01/09 09:16:45;;;;;;;2.63;2.10;;;16.70;44.60;;;;;;6093993;23;20144;-79
2021/01/09 09:19:18;;;;;;;3.42;2.25;;;16.70;44.60;;;;;;6116048;23;20148;-81
2021/01/09 09:21:48;;;;;;;2.53;2.08;;;16.70;44.50;;;;;;6141477;23;20174;-79
2021/01/09 09:24:14;;;;;;;2.47;1.98;;;16.70;44.50;;;;;;6090648;23;20195;-79
2021/01/09 09:26:42;;;;;;;4.45;2.65;;;16.70;44.60;;;;;;6116020;23;20518;-80
2021/01/09 09:29:16;;;;;;;3.70;2.30;;;16.70;44.60;;;;;;6091823;23;20132;-81
2021/01/09 09:31:43;;;;;;;3.47;2.50;;;16.90;44.60;;;;;;6140817;23;20191;-81
2021/01/09 09:34:15;;;;;;;3.40;2.45;;;16.90;44.40;;;;;;6090994;23;20251;-80
2021/01/09 09:36:48;;;;;;;2.38;1.95;;;17.00;44.30;;;;;;6067556;23;20184;-83
2021/01/09 09:39:16;;;;;;;2.88;2.20;;;16.90;44.40;;;;;;6141072;23;20152;-80
2021/01/09 09:41:51;;;;;;;3.00;2.15;;;16.90;44.10;;;;;;6115904;23;20137;-81
2021/01/09 09:44:16;;;;;;;3.08;2.45;;;17.00;44.10;;;;;;6140622;23;20132;-80
2021/01/09 09:46:43;;;;;;;4.10;2.35;;;16.90;44.30;;;;;;6067414;23;20515;-80
2021/01/09 09:49:11;;;;;;;4.93;2.35;;;17.00;44.10;;;;;;6142138;23;20132;-81
2021/01/09 09:51:36;;;;;;;2.25;2.00;;;17.10;44.10;;;;;;6091932;23;20168;-80
2021/01/09 09:54:11;;;;;;;2.92;2.00;;;17.10;44.20;;;;;;6116400;23;20256;-80
2021/01/09 09:56:40;;;;;;;2.72;2.10;;;17.10;44.10;;;;;;6141706;23;20163;-80
2021/01/09 09:59:10;;;;;;;4.93;2.30;;;17.10;44.00;;;;;;6141777;23;20155;-80
2021/01/09 10:01:42;;;;;;;3.00;2.33;;;17.20;44.10;;;;;;6141320;23;20140;-81
2021/01/09 10:04:11;;;;;;;2.47;2.20;;;17.10;44.20;;;;;;6140846;23;20141;-81
2021/01/09 10:06:41;;;;;;;3.53;2.42;;;17.10;44.40;;;;;;6115537;23;20235;-80
2021/01/09 10:09:18;;;;;;;4.13;2.40;;;17.10;44.30;;;;;;6114636;23;20136;-80
2021/01/09 10:11:44;;;;;;;2.97;2.35;;;17.10;44.50;;;;;;6113973;23;20353;-80
2021/01/09 10:14:10;;;;;;;3.47;2.30;;;17.10;44.60;;;;;;6114936;23;20137;-80
2021/01/09 10:16:38;;;;;;;2.70;2.20;;;17.10;44.90;;;;;;6140696;23;20148;-79
2021/01/09 10:19:05;;;;;;;2.58;2.10;;;17.00;45.00;;;;;;6114970;23;20568;-81
2021/01/09 10:21:34;;;;;;;2.78;2.20;;;17.10;45.00;;;;;;6091323;23;20136;-81
2021/01/09 10:24:01;;;;;;;2.55;2.00;;;17.00;45.20;;;;;;6140697;23;20590;-80
2021/01/09 10:26:34;;;;;;;3.50;2.20;;;17.00;45.40;;;;;;6140385;23;20196;-80
2021/01/09 10:29:00;;;;;;;2.88;2.30;;;17.10;45.40;;;;;;6139736;23;20147;-80
2021/01/09 10:31:30;;;;;;;4.25;2.42;;;17.00;45.30;;;;;;6113748;23;20654;-80
2021/01/09 10:34:06;;;;;;;2.85;2.35;;;17.10;45.30;;;;;;6140057;23;20156;-80
2021/01/09 10:36:34;;;;;;;3.85;2.38;;;17.10;45.00;;;;;;6138583;23;20194;-80
2021/01/09 10:39:01;;;;;;;2.80;2.22;;;17.20;45.00;;;;;;6114209;23;20136;-81
2021/01/09 10:41:28;;;;;;;2.55;2.15;;;17.10;45.30;;;;;;6115227;23;20136;-80
2021/01/09 10:43:56;;;;;;;2.58;2.10;;;17.10;45.10;;;;;;6090065;23;20199;-80
2021/01/09 10:46:24;;;;;;;3.75;2.55;;;17.10;45.30;;;;;;6066225;23;20152;-80
2021/01/09 10:48:50;;;;;;;2.97;2.17;;;17.10;45.20;;;;;;6066435;23;20156;-80
2021/01/09 10:51:16;;;;;;;3.95;2.75;;;17.10;45.30;;;;;;6092163;23;20168;-81
2021/01/09 10:53:42;;;;;;;3.08;1.98;;;17.00;45.30;;;;;;6067108;23;20565;-81
2021/01/09 10:56:08;;;;;;;2.50;2.17;;;17.00;45.40;;;;;;6090342;23;20237;-81
2021/01/09 10:58:37;;;;;;;3.83;2.35;;;17.00;45.40;;;;;;6066235;23;20156;-81
2021/01/09 11:01:06;;;;;;;3.38;2.40;;;16.90;45.70;;;;;;6089575;23;20218;-83
2021/01/09 11:03:34;;;;;;;2.90;2.15;;;16.90;45.80;;;;;;6091153;23;20163;-82
2021/01/09 11:06:03;;;;;;;3.15;2.22;;;16.80;45.80;;;;;;6067101;23;20152;-81
2021/01/09 11:08:31;;;;;;;4.30;2.30;;;16.80;45.80;;;;;;6067391;23;20182;-81
2021/01/09 11:11:02;;;;;;;3.38;2.40;;;16.80;46.00;;;;;;6067243;23;20179;-81
2021/01/09 11:13:31;;;;;;;2.95;1.92;;;16.80;46.00;;;;;;6066971;23;20148;-81
2021/01/09 11:15:56;;;;;;;3.08;2.45;;;16.80;46.10;;;;;;6091125;23;20174;-80
2021/01/09 11:18:22;;;;;;;3.50;2.20;;;16.80;46.10;;;;;;6067223;23;20152;-81
2021/01/09 11:20:52;;;;;;;3.33;2.22;;;16.70;46.20;;;;;;6066851;23;20159;-81
2021/01/09 11:23:20;;;;;;;4.25;2.17;;;16.80;46.00;;;;;;6092000;23;20152;-80
2021/01/09 11:25:50;;;;;;;2.88;2.30;;;16.80;46.00;;;;;;6067910;23;20511;-81
2021/01/09 11:28:19;;;;;;;3.85;2.25;;;16.80;46.00;;;;;;6070202;23;20152;-81
2021/01/09 11:30:46;;;;;;;2.80;2.28;;;16.80;46.10;;;;;;6090143;23;20180;-81
2021/01/09 11:33:12;;;;;;;4.07;2.53;;;16.80;46.40;;;;;;6091799;23;20148;-80
2021/01/09 11:35:39;;;;;;;2.67;2.30;;;16.90;45.90;;;;;;6066683;23;20268;-81
2021/01/09 11:38:05;;;;;;;3.30;2.15;;;16.80;45.90;;;;;;6067690;23;20152;-80
2021/01/09 11:40:35;;;;;;;3.10;2.50;;;16.80;45.80;;;;;;6067774;23;20179;-81
2021/01/09 11:43:02;;;;;;;3.58;2.10;;;16.90;45.90;;;;;;6067951;23;20148;-82
2021/01/09 11:45:28;;;;;;;3.63;2.30;;;16.90;45.90;;;;;;6091227;23;20142;-81
2021/01/09 11:47:54;;;;;;;5.63;2.38;;;16.90;45.90;;;;;;6066800;23;20148;-81
2021/01/09 11:50:22;;;;;;;3.10;2.30;;;16.80;46.00;;;;;;6090977;23;20170;-81
2021/01/09 11:52:49;;;;;;;3.00;2.13;;;16.80;46.10;;;;;;6090559;23;20144;-80
2021/01/09 11:55:15;;;;;;;4.80;2.30;;;16.80;46.20;;;;;;6067830;23;20176;-81
2021/01/09 11:57:41;;;;;;;2.50;2.30;;;16.80;46.30;;;;;;6067178;23;20148;-80
2021/01/09 12:00:13;;;;;;;4.22;2.50;;;16.70;46.30;;;;;;6066154;23;20152;-80
2021/01/09 12:02:39;;;;;;;3.05;2.25;;;16.80;46.40;;;;;;6115410;23;20144;-81
2021/01/09 12:05:08;;;;;;;3.03;2.10;;;16.80;46.40;;;;;;6068387;23;20180;-81
2021/01/09 12:07:38;;;;;;;3.58;2.47;;;16.80;46.40;;;;;;6091175;23;20251;-80
2021/01/09 12:10:07;;;;;;;3.20;2.38;;;16.80;46.40;;;;;;6092281;23;20159;-81
2021/01/09 12:12:33;;;;;;;3.28;2.60;;;16.80;46.30;;;;;;6068019;23;20151;-81
2021/01/09 12:14:59;;;;;;;3.53;2.33;;;16.80;46.20;;;;;;6066179;23;20215;-81
2021/01/09 12:17:26;;;;;;;3.53;2.38;;;16.80;46.20;;;;;;6066226;23;20151;-81
2021/01/09 12:19:52;;;;;;;3.60;2.40;;;16.70;46.30;;;;;;6090930;23;20139;-81
2021/01/09 12:22:19;;;;;;;4.07;2.40;;;16.70;46.30;;;;;;6066284;23;20171;-81
2021/01/09 12:24:48;;;;;;;2.90;2.35;;;16.70;46.20;;;;;;6067456;23;20148;-81
2021/01/09 12:27:18;;;;;;;4.45;2.70;;;16.70;46.20;;;;;;6115244;23;20161;-81
2021/01/09 12:29:45;;;;;;;3.15;2.35;;;16.80;46.10;;;;;;6090409;23;20148;-81
2021/01/09 12:32:14;;;;;;;4.88;2.28;;;16.80;46.10;;;;;;6090668;23;20179;-81
2021/01/09 12:34:40;;;;;;;2.75;2.20;;;16.70;46.20;;;;;;6090693;23;20191;-81
2021/01/09 12:37:07;;;;;;;3.53;2.60;;;16.70;46.20;;;;;;6141003;23;20144;-81
2021/01/09 12:39:42;;;;;;;3.10;2.30;;;16.70;46.30;;;;;;6114686;23;20148;-81
2021/01/09 12:42:10;;;;;;;5.53;2.58;;;16.70;46.30;;;;;;6140065;23;20132;-81
2021/01/09 12:44:36;;;;;;;3.13;2.40;;;16.70;46.30;;;;;;6114331;23;20196;-81
2021/01/09 12:47:03;;;;;;;4.25;2.42;;;16.70;46.20;;;;;;6141153;23;20141;-81
2021/01/09 12:49:37;;;;;;;3.45;2.60;;;16.70;46.20;;;;;;6140898;23;20140;-81
2021/01/09 12:52:04;;;;;;;3.88;2.72;;;16.80;46.20;;;;;;6140958;23;20222;-81
2021/01/09 12:54:30;;;;;;;3.15;2.50;;;16.80;46.10;;;;;;6115626;23;20552;-81
2021/01/09 12:57:05;;;;;;;2.85;2.22;;;16.80;46.20;;;;;;6116166;23;20143;-81